sensor_id;sensor_type;location;lat;lon;timestamp;P1;durP1;ratioP1;P2;durP2;ratioP2
32365;SDS011;18837;46.832;16.838;2023-06-22T00:00:58;11.33;;;10.27;;
32365;SDS011;18837;46.832;16.838;2023-06-22T00:03:25;11.43;;;10.33;;
32365;SDS011;18837;46.832;16.838;2023-06-22T00:05:51;10.57;;;9.67;;
32365;SDS011;18837;46.832;16.838;2023-06-22T00:08:18;11.07;;;10.00;;
32365;SDS011;18837;46.832;16.838;2023-06-22T00:10:44;10.53;;;9.60;;
32365;SDS011;18837;46.832;16.838;2023-06-22T00:13:11;10.07;;;9.13;;
32365;SDS011;18837;46.832;16.838;2023-06-22T00:15:38;11.37;;;10.30;;
32365;SDS011;18837;46.832;16.838;2023-06-22T00:18:08;10.67;;;9.83;;
32365;SDS011;18837;46.832;16.838;2023-06-22T00:20:35;10.70;;;9.80;;
32365;SDS011;18837;46.832;16.838;2023-06-22T00:23:04;10.73;;;9.73;;
32365;SDS011;18837;46.832;16.838;2023-06-22T00:25:37;10.67;;;9.70;;
32365;SDS011;18837;46.832;16.838;2023-06-22T00:28:06;9.97;;;9.17;;
32365;SDS011;18837;46.832;16.838;2023-06-22T00:30:36;11.63;;;10.23;;
32365;SDS011;18837;46.832;16.838;2023-06-22T00:33:03;11.50;;;10.40;;
32365;SDS011;18837;46.832;16.838;2023-06-22T00:35:32;11.40;;;10.40;;
32365;SDS011;18837;46.832;16.838;2023-06-22T00:37:59;10.00;;;9.00;;
32365;SDS011;18837;46.832;16.838;2023-06-22T00:40:26;10.43;;;9.47;;
32365;SDS011;18837;46.832;16.838;2023-06-22T00:42:56;10.53;;;9.53;;
32365;SDS011;18837;46.832;16.838;2023-06-22T00:45:22;10.57;;;9.57;;
32365;SDS011;18837;46.832;16.838;2023-06-22T00:47:52;11.07;;;9.43;;
32365;SDS011;18837;46.832;16.838;2023-06-22T00:50:21;11.30;;;9.00;;
32365;SDS011;18837;46.832;16.838;2023-06-22T00:52:57;11.43;;;9.37;;
32365;SDS011;18837;46.832;16.838;2023-06-22T00:55:24;9.60;;;8.70;;
32365;SDS011;18837;46.832;16.838;2023-06-22T00:57:51;9.60;;;8.60;;
32365;SDS011;18837;46.832;16.838;2023-06-22T01:00:21;9.80;;;8.90;;
32365;SDS011;18837;46.832;16.838;2023-06-22T01:02:50;8.80;;;8.00;;
32365;SDS011;18837;46.832;16.838;2023-06-22T01:05:19;9.03;;;8.13;;
32365;SDS011;18837;46.832;16.838;2023-06-22T01:10:54;9.00;;;8.10;;
32365;SDS011;18837;46.832;16.838;2023-06-22T01:18:45;9.07;;;8.00;;
32365;SDS011;18837;46.832;16.838;2023-06-22T01:21:14;9.33;;;8.00;;
32365;SDS011;18837;46.832;16.838;2023-06-22T01:26:19;9.20;;;8.07;;
32365;SDS011;18837;46.832;16.838;2023-06-22T01:28:53;8.53;;;7.73;;
32365;SDS011;18837;46.832;16.838;2023-06-22T01:31:23;8.30;;;7.50;;
32365;SDS011;18837;46.832;16.838;2023-06-22T01:33:54;9.07;;;7.83;;
32365;SDS011;18837;46.832;16.838;2023-06-22T01:36:23;8.63;;;7.83;;
32365;SDS011;18837;46.832;16.838;2023-06-22T01:38:50;7.90;;;7.17;;
32365;SDS011;18837;46.832;16.838;2023-06-22T01:41:18;9.83;;;7.40;;
32365;SDS011;18837;46.832;16.838;2023-06-22T01:43:48;8.50;;;7.63;;
32365;SDS011;18837;46.832;16.838;2023-06-22T01:46:14;7.83;;;7.03;;
32365;SDS011;18837;46.832;16.838;2023-06-22T01:48:41;9.37;;;7.60;;
32365;SDS011;18837;46.832;16.838;2023-06-22T01:51:06;8.37;;;7.53;;
32365;SDS011;18837;46.832;16.838;2023-06-22T01:53:33;7.40;;;6.73;;
32365;SDS011;18837;46.832;16.838;2023-06-22T01:55:58;9.00;;;7.27;;
32365;SDS011;18837;46.832;16.838;2023-06-22T01:58:25;8.53;;;7.70;;
32365;SDS011;18837;46.832;16.838;2023-06-22T02:01:07;8.60;;;7.27;;
32365;SDS011;18837;46.832;16.838;2023-06-22T02:03:38;8.13;;;7.20;;
32365;SDS011;18837;46.832;16.838;2023-06-22T02:06:20;7.70;;;6.57;;
32365;SDS011;18837;46.832;16.838;2023-06-22T02:08:57;7.57;;;6.67;;
32365;SDS011;18837;46.832;16.838;2023-06-22T02:11:26;7.63;;;6.80;;
32365;SDS011;18837;46.832;16.838;2023-06-22T02:13:55;7.70;;;6.87;;
32365;SDS011;18837;46.832;16.838;2023-06-22T02:16:22;8.43;;;6.87;;
32365;SDS011;18837;46.832;16.838;2023-06-22T02:18:49;9.33;;;6.60;;
32365;SDS011;18837;46.832;16.838;2023-06-22T02:21:16;9.13;;;6.63;;
32365;SDS011;18837;46.832;16.838;2023-06-22T02:23:42;7.43;;;6.57;;
32365;SDS011;18837;46.832;16.838;2023-06-22T02:26:08;8.40;;;6.40;;
32365;SDS011;18837;46.832;16.838;2023-06-22T02:28:34;8.77;;;6.43;;
32365;SDS011;18837;46.832;16.838;2023-06-22T02:30:59;6.93;;;6.17;;
32365;SDS011;18837;46.832;16.838;2023-06-22T02:33:25;7.03;;;5.80;;
32365;SDS011;18837;46.832;16.838;2023-06-22T02:35:52;7.17;;;6.13;;
32365;SDS011;18837;46.832;16.838;2023-06-22T02:38:18;7.77;;;6.10;;
32365;SDS011;18837;46.832;16.838;2023-06-22T02:40:44;7.27;;;5.67;;
32365;SDS011;18837;46.832;16.838;2023-06-22T02:43:10;6.83;;;5.80;;
32365;SDS011;18837;46.832;16.838;2023-06-22T02:45:36;9.67;;;6.23;;
32365;SDS011;18837;46.832;16.838;2023-06-22T02:48:07;7.40;;;6.00;;
32365;SDS011;18837;46.832;16.838;2023-06-22T02:50:33;6.30;;;5.70;;
32365;SDS011;18837;46.832;16.838;2023-06-22T02:52:58;6.67;;;5.93;;
32365;SDS011;18837;46.832;16.838;2023-06-22T02:55:24;7.60;;;5.70;;
32365;SDS011;18837;46.832;16.838;2023-06-22T02:57:50;6.60;;;5.60;;
32365;SDS011;18837;46.832;16.838;2023-06-22T03:00:18;7.30;;;5.30;;
32365;SDS011;18837;46.832;16.838;2023-06-22T03:02:47;7.80;;;5.70;;
32365;SDS011;18837;46.832;16.838;2023-06-22T03:05:14;7.53;;;6.03;;
32365;SDS011;18837;46.832;16.838;2023-06-22T03:07:43;7.80;;;5.53;;
32365;SDS011;18837;46.832;16.838;2023-06-22T03:10:09;6.33;;;5.10;;
32365;SDS011;18837;46.832;16.838;2023-06-22T03:12:37;5.90;;;5.27;;
32365;SDS011;18837;46.832;16.838;2023-06-22T03:15:10;8.47;;;5.20;;
32365;SDS011;18837;46.832;16.838;2023-06-22T03:17:37;5.97;;;5.40;;
32365;SDS011;18837;46.832;16.838;2023-06-22T03:20:05;7.83;;;5.67;;
32365;SDS011;18837;46.832;16.838;2023-06-22T03:22:38;6.57;;;5.40;;
32365;SDS011;18837;46.832;16.838;2023-06-22T03:25:07;8.67;;;5.77;;
32365;SDS011;18837;46.832;16.838;2023-06-22T03:27:40;8.77;;;5.17;;
32365;SDS011;18837;46.832;16.838;2023-06-22T03:30:08;5.63;;;5.03;;
32365;SDS011;18837;46.832;16.838;2023-06-22T03:32:35;6.13;;;5.03;;
32365;SDS011;18837;46.832;16.838;2023-06-22T03:35:01;7.27;;;5.17;;
32365;SDS011;18837;46.832;16.838;2023-06-22T03:37:27;6.40;;;4.50;;
32365;SDS011;18837;46.832;16.838;2023-06-22T03:39:54;6.47;;;5.17;;
32365;SDS011;18837;46.832;16.838;2023-06-22T03:42:20;5.70;;;4.73;;
32365;SDS011;18837;46.832;16.838;2023-06-22T03:44:46;6.70;;;4.90;;
32365;SDS011;18837;46.832;16.838;2023-06-22T03:47:12;6.27;;;4.97;;
32365;SDS011;18837;46.832;16.838;2023-06-22T03:49:38;6.70;;;5.43;;
32365;SDS011;18837;46.832;16.838;2023-06-22T03:52:04;10.47;;;5.50;;
32365;SDS011;18837;46.832;16.838;2023-06-22T03:54:30;7.07;;;4.90;;
32365;SDS011;18837;46.832;16.838;2023-06-22T03:56:59;5.97;;;4.67;;
32365;SDS011;18837;46.832;16.838;2023-06-22T03:59:25;7.37;;;5.17;;
32365;SDS011;18837;46.832;16.838;2023-06-22T04:01:52;6.73;;;4.90;;
32365;SDS011;18837;46.832;16.838;2023-06-22T04:04:18;6.87;;;4.70;;
32365;SDS011;18837;46.832;16.838;2023-06-22T04:06:44;6.60;;;5.17;;
32365;SDS011;18837;46.832;16.838;2023-06-22T04:09:09;7.47;;;5.07;;
32365;SDS011;18837;46.832;16.838;2023-06-22T04:11:35;8.10;;;5.20;;
32365;SDS011;18837;46.832;16.838;2023-06-22T04:14:01;5.77;;;4.70;;
32365;SDS011;18837;46.832;16.838;2023-06-22T04:16:27;5.27;;;4.73;;
32365;SDS011;18837;46.832;16.838;2023-06-22T04:18:52;5.87;;;4.73;;
32365;SDS011;18837;46.832;16.838;2023-06-22T04:21:18;6.30;;;4.43;;
32365;SDS011;18837;46.832;16.838;2023-06-22T04:23:47;6.73;;;4.63;;
32365;SDS011;18837;46.832;16.838;2023-06-22T04:26:13;7.37;;;4.40;;
32365;SDS011;18837;46.832;16.838;2023-06-22T04:28:42;7.00;;;4.60;;
32365;SDS011;18837;46.832;16.838;2023-06-22T04:31:08;7.37;;;4.67;;
32365;SDS011;18837;46.832;16.838;2023-06-22T04:33:33;7.30;;;4.43;;
32365;SDS011;18837;46.832;16.838;2023-06-22T04:35:59;6.47;;;4.90;;
32365;SDS011;18837;46.832;16.838;2023-06-22T04:38:29;5.23;;;4.73;;
32365;SDS011;18837;46.832;16.838;2023-06-22T04:40:58;7.83;;;4.40;;
32365;SDS011;18837;46.832;16.838;2023-06-22T04:43:26;6.20;;;4.37;;
32365;SDS011;18837;46.832;16.838;2023-06-22T04:45:56;6.20;;;4.40;;
32365;SDS011;18837;46.832;16.838;2023-06-22T04:48:28;5.70;;;4.30;;
32365;SDS011;18837;46.832;16.838;2023-06-22T04:50:59;5.57;;;4.60;;
32365;SDS011;18837;46.832;16.838;2023-06-22T04:53:28;5.00;;;4.30;;
32365;SDS011;18837;46.832;16.838;2023-06-22T04:55:55;6.40;;;4.70;;
32365;SDS011;18837;46.832;16.838;2023-06-22T04:58:21;7.87;;;4.63;;
32365;SDS011;18837;46.832;16.838;2023-06-22T05:00:47;8.40;;;4.47;;
32365;SDS011;18837;46.832;16.838;2023-06-22T05:03:13;7.30;;;4.63;;
32365;SDS011;18837;46.832;16.838;2023-06-22T05:05:38;5.53;;;4.23;;
32365;SDS011;18837;46.832;16.838;2023-06-22T05:08:05;4.40;;;4.00;;
32365;SDS011;18837;46.832;16.838;2023-06-22T05:10:32;6.90;;;4.53;;
32365;SDS011;18837;46.832;16.838;2023-06-22T05:12:58;5.20;;;4.27;;
32365;SDS011;18837;46.832;16.838;2023-06-22T05:15:24;9.13;;;4.90;;
32365;SDS011;18837;46.832;16.838;2023-06-22T05:17:53;6.17;;;4.40;;
32365;SDS011;18837;46.832;16.838;2023-06-22T05:20:19;7.03;;;4.47;;
32365;SDS011;18837;46.832;16.838;2023-06-22T05:22:46;8.23;;;5.00;;
32365;SDS011;18837;46.832;16.838;2023-06-22T05:25:12;6.37;;;4.27;;
32365;SDS011;18837;46.832;16.838;2023-06-22T05:27:39;6.73;;;4.50;;
32365;SDS011;18837;46.832;16.838;2023-06-22T05:30:07;6.80;;;4.27;;
32365;SDS011;18837;46.832;16.838;2023-06-22T05:32:34;6.73;;;4.80;;
32365;SDS011;18837;46.832;16.838;2023-06-22T05:35:01;5.17;;;4.10;;
32365;SDS011;18837;46.832;16.838;2023-06-22T05:37:28;8.20;;;4.70;;
32365;SDS011;18837;46.832;16.838;2023-06-22T05:40:00;6.20;;;4.73;;
32365;SDS011;18837;46.832;16.838;2023-06-22T05:42:26;6.20;;;4.33;;
32365;SDS011;18837;46.832;16.838;2023-06-22T05:44:52;6.53;;;4.30;;
32365;SDS011;18837;46.832;16.838;2023-06-22T05:47:18;9.23;;;4.73;;
32365;SDS011;18837;46.832;16.838;2023-06-22T05:49:44;6.67;;;4.40;;
32365;SDS011;18837;46.832;16.838;2023-06-22T05:52:10;7.50;;;5.30;;
32365;SDS011;18837;46.832;16.838;2023-06-22T05:54:37;10.13;;;5.37;;
32365;SDS011;18837;46.832;16.838;2023-06-22T05:57:04;7.53;;;5.43;;
32365;SDS011;18837;46.832;16.838;2023-06-22T05:59:31;6.40;;;4.70;;
32365;SDS011;18837;46.832;16.838;2023-06-22T06:01:56;8.27;;;5.50;;
32365;SDS011;18837;46.832;16.838;2023-06-22T06:04:22;9.00;;;5.63;;
32365;SDS011;18837;46.832;16.838;2023-06-22T06:06:48;8.10;;;5.10;;
32365;SDS011;18837;46.832;16.838;2023-06-22T06:09:14;8.33;;;5.23;;
32365;SDS011;18837;46.832;16.838;2023-06-22T06:11:39;8.67;;;5.37;;
32365;SDS011;18837;46.832;16.838;2023-06-22T06:14:05;5.73;;;4.40;;
32365;SDS011;18837;46.832;16.838;2023-06-22T06:16:31;7.30;;;5.13;;
32365;SDS011;18837;46.832;16.838;2023-06-22T06:18:57;5.40;;;4.60;;
32365;SDS011;18837;46.832;16.838;2023-06-22T06:21:23;5.37;;;4.83;;
32365;SDS011;18837;46.832;16.838;2023-06-22T06:23:49;6.77;;;4.47;;
32365;SDS011;18837;46.832;16.838;2023-06-22T06:26:15;7.40;;;5.00;;
32365;SDS011;18837;46.832;16.838;2023-06-22T06:28:52;6.83;;;4.50;;
32365;SDS011;18837;46.832;16.838;2023-06-22T06:31:19;7.20;;;4.90;;
32365;SDS011;18837;46.832;16.838;2023-06-22T06:33:45;6.60;;;4.73;;
32365;SDS011;18837;46.832;16.838;2023-06-22T06:36:11;6.97;;;4.67;;
32365;SDS011;18837;46.832;16.838;2023-06-22T06:38:37;18.88;;;6.68;;
32365;SDS011;18837;46.832;16.838;2023-06-22T06:41:02;30.87;;;6.97;;
32365;SDS011;18837;46.832;16.838;2023-06-22T06:43:28;16.90;;;5.27;;
32365;SDS011;18837;46.832;16.838;2023-06-22T06:45:54;13.27;;;5.43;;
32365;SDS011;18837;46.832;16.838;2023-06-22T06:48:20;8.77;;;5.17;;
32365;SDS011;18837;46.832;16.838;2023-06-22T06:50:45;13.27;;;4.83;;
32365;SDS011;18837;46.832;16.838;2023-06-22T06:53:11;6.97;;;4.60;;
32365;SDS011;18837;46.832;16.838;2023-06-22T06:55:37;13.27;;;5.40;;
32365;SDS011;18837;46.832;16.838;2023-06-22T06:58:03;9.10;;;5.47;;
32365;SDS011;18837;46.832;16.838;2023-06-22T07:00:32;9.10;;;4.87;;
32365;SDS011;18837;46.832;16.838;2023-06-22T07:02:58;7.73;;;4.83;;
32365;SDS011;18837;46.832;16.838;2023-06-22T07:05:24;13.10;;;5.40;;
32365;SDS011;18837;46.832;16.838;2023-06-22T07:07:50;7.83;;;5.17;;
32365;SDS011;18837;46.832;16.838;2023-06-22T07:10:15;9.63;;;4.70;;
32365;SDS011;18837;46.832;16.838;2023-06-22T07:12:41;8.43;;;5.00;;
32365;SDS011;18837;46.832;16.838;2023-06-22T07:15:07;11.27;;;5.33;;
32365;SDS011;18837;46.832;16.838;2023-06-22T07:17:34;8.33;;;4.90;;
32365;SDS011;18837;46.832;16.838;2023-06-22T07:20:01;7.43;;;4.90;;
32365;SDS011;18837;46.832;16.838;2023-06-22T07:22:34;8.73;;;5.20;;
32365;SDS011;18837;46.832;16.838;2023-06-22T07:25:00;7.07;;;4.67;;
32365;SDS011;18837;46.832;16.838;2023-06-22T07:27:29;5.90;;;4.80;;
32365;SDS011;18837;46.832;16.838;2023-06-22T07:30:00;7.80;;;4.83;;
32365;SDS011;18837;46.832;16.838;2023-06-22T07:32:25;7.90;;;5.07;;
32365;SDS011;18837;46.832;16.838;2023-06-22T07:34:53;6.60;;;4.50;;
32365;SDS011;18837;46.832;16.838;2023-06-22T07:37:19;8.13;;;4.90;;
32365;SDS011;18837;46.832;16.838;2023-06-22T07:39:46;8.77;;;5.20;;
32365;SDS011;18837;46.832;16.838;2023-06-22T07:42:12;8.10;;;5.27;;
32365;SDS011;18837;46.832;16.838;2023-06-22T07:44:43;8.03;;;5.10;;
32365;SDS011;18837;46.832;16.838;2023-06-22T07:47:09;8.73;;;5.17;;
32365;SDS011;18837;46.832;16.838;2023-06-22T07:49:35;6.13;;;5.03;;
32365;SDS011;18837;46.832;16.838;2023-06-22T07:52:00;8.13;;;5.03;;
32365;SDS011;18837;46.832;16.838;2023-06-22T07:54:27;8.13;;;5.40;;
32365;SDS011;18837;46.832;16.838;2023-06-22T07:56:54;5.13;;;4.60;;
32365;SDS011;18837;46.832;16.838;2023-06-22T07:59:20;7.53;;;5.10;;
32365;SDS011;18837;46.832;16.838;2023-06-22T08:01:45;5.70;;;4.93;;
32365;SDS011;18837;46.832;16.838;2023-06-22T08:04:14;5.60;;;4.97;;
32365;SDS011;18837;46.832;16.838;2023-06-22T08:06:40;6.53;;;4.47;;
32365;SDS011;18837;46.832;16.838;2023-06-22T08:09:06;6.37;;;4.93;;
32365;SDS011;18837;46.832;16.838;2023-06-22T08:11:32;5.23;;;4.70;;
32365;SDS011;18837;46.832;16.838;2023-06-22T08:13:58;5.93;;;5.33;;
32365;SDS011;18837;46.832;16.838;2023-06-22T08:16:24;6.87;;;5.33;;
32365;SDS011;18837;46.832;16.838;2023-06-22T08:18:50;6.73;;;5.90;;
32365;SDS011;18837;46.832;16.838;2023-06-22T08:21:16;8.33;;;6.23;;
32365;SDS011;18837;46.832;16.838;2023-06-22T08:23:41;8.03;;;5.70;;
32365;SDS011;18837;46.832;16.838;2023-06-22T08:26:07;7.93;;;6.00;;
32365;SDS011;18837;46.832;16.838;2023-06-22T08:28:33;9.77;;;6.60;;
32365;SDS011;18837;46.832;16.838;2023-06-22T08:30:59;9.23;;;6.47;;
32365;SDS011;18837;46.832;16.838;2023-06-22T08:33:26;9.00;;;7.13;;
32365;SDS011;18837;46.832;16.838;2023-06-22T08:35:54;10.23;;;7.23;;
32365;SDS011;18837;46.832;16.838;2023-06-22T08:38:20;7.77;;;6.07;;
32365;SDS011;18837;46.832;16.838;2023-06-22T08:40:46;7.20;;;6.60;;
32365;SDS011;18837;46.832;16.838;2023-06-22T08:43:12;10.67;;;6.70;;
32365;SDS011;18837;46.832;16.838;2023-06-22T08:45:38;8.00;;;7.20;;
32365;SDS011;18837;46.832;16.838;2023-06-22T08:48:03;7.93;;;7.00;;
32365;SDS011;18837;46.832;16.838;2023-06-22T08:50:29;12.17;;;7.27;;
32365;SDS011;18837;46.832;16.838;2023-06-22T08:52:55;10.03;;;7.20;;
32365;SDS011;18837;46.832;16.838;2023-06-22T08:55:20;10.37;;;7.37;;
32365;SDS011;18837;46.832;16.838;2023-06-22T08:57:46;8.47;;;7.40;;
32365;SDS011;18837;46.832;16.838;2023-06-22T09:00:12;8.90;;;7.43;;
32365;SDS011;18837;46.832;16.838;2023-06-22T09:02:48;8.97;;;7.47;;
32365;SDS011;18837;46.832;16.838;2023-06-22T09:05:14;9.47;;;7.13;;
32365;SDS011;18837;46.832;16.838;2023-06-22T09:07:40;9.67;;;7.00;;
32365;SDS011;18837;46.832;16.838;2023-06-22T09:10:06;8.60;;;7.27;;
32365;SDS011;18837;46.832;16.838;2023-06-22T09:12:33;9.73;;;8.03;;
32365;SDS011;18837;46.832;16.838;2023-06-22T09:14:59;8.40;;;7.60;;
32365;SDS011;18837;46.832;16.838;2023-06-22T09:17:26;8.60;;;7.70;;
32365;SDS011;18837;46.832;16.838;2023-06-22T09:19:52;10.10;;;7.63;;
32365;SDS011;18837;46.832;16.838;2023-06-22T09:22:17;8.70;;;7.90;;
32365;SDS011;18837;46.832;16.838;2023-06-22T09:24:46;11.07;;;7.80;;
32365;SDS011;18837;46.832;16.838;2023-06-22T09:27:11;9.40;;;7.80;;
32365;SDS011;18837;46.832;16.838;2023-06-22T09:29:37;8.57;;;7.77;;
32365;SDS011;18837;46.832;16.838;2023-06-22T09:32:03;10.20;;;7.97;;
32365;SDS011;18837;46.832;16.838;2023-06-22T09:34:29;8.53;;;7.63;;
32365;SDS011;18837;46.832;16.838;2023-06-22T09:36:56;8.50;;;7.70;;
32365;SDS011;18837;46.832;16.838;2023-06-22T09:39:23;7.70;;;7.00;;
32365;SDS011;18837;46.832;16.838;2023-06-22T09:41:49;8.80;;;7.90;;
32365;SDS011;18837;46.832;16.838;2023-06-22T09:44:15;9.70;;;7.70;;
32365;SDS011;18837;46.832;16.838;2023-06-22T09:46:40;9.03;;;7.70;;
32365;SDS011;18837;46.832;16.838;2023-06-22T09:49:06;8.50;;;7.70;;
32365;SDS011;18837;46.832;16.838;2023-06-22T09:51:32;10.23;;;8.63;;
32365;SDS011;18837;46.832;16.838;2023-06-22T09:53:59;8.80;;;8.00;;
32365;SDS011;18837;46.832;16.838;2023-06-22T09:56:26;9.07;;;8.17;;
32365;SDS011;18837;46.832;16.838;2023-06-22T09:58:54;9.17;;;8.37;;
32365;SDS011;18837;46.832;16.838;2023-06-22T10:01:20;9.17;;;8.37;;
32365;SDS011;18837;46.832;16.838;2023-06-22T10:03:46;9.93;;;8.73;;
32365;SDS011;18837;46.832;16.838;2023-06-22T10:06:12;9.57;;;8.77;;
32365;SDS011;18837;46.832;16.838;2023-06-22T10:08:38;10.67;;;9.57;;
32365;SDS011;18837;46.832;16.838;2023-06-22T10:11:05;9.10;;;8.30;;
32365;SDS011;18837;46.832;16.838;2023-06-22T10:13:31;8.50;;;7.60;;
32365;SDS011;18837;46.832;16.838;2023-06-22T10:15:57;9.70;;;8.80;;
32365;SDS011;18837;46.832;16.838;2023-06-22T10:18:23;10.07;;;8.97;;
32365;SDS011;18837;46.832;16.838;2023-06-22T10:20:49;9.33;;;8.43;;
32365;SDS011;18837;46.832;16.838;2023-06-22T10:23:21;9.07;;;8.27;;
32365;SDS011;18837;46.832;16.838;2023-06-22T10:25:47;9.73;;;8.90;;
32365;SDS011;18837;46.832;16.838;2023-06-22T10:28:16;9.60;;;8.80;;
32365;SDS011;18837;46.832;16.838;2023-06-22T10:30:46;10.17;;;8.67;;
32365;SDS011;18837;46.832;16.838;2023-06-22T10:33:12;9.67;;;8.63;;
32365;SDS011;18837;46.832;16.838;2023-06-22T10:35:38;9.50;;;8.70;;
32365;SDS011;18837;46.832;16.838;2023-06-22T10:38:04;10.83;;;9.73;;
32365;SDS011;18837;46.832;16.838;2023-06-22T10:40:30;9.77;;;8.83;;
32365;SDS011;18837;46.832;16.838;2023-06-22T10:42:56;9.17;;;8.47;;
32365;SDS011;18837;46.832;16.838;2023-06-22T10:45:22;9.47;;;8.67;;
32365;SDS011;18837;46.832;16.838;2023-06-22T10:47:54;9.20;;;8.43;;
32365;SDS011;18837;46.832;16.838;2023-06-22T10:50:20;9.63;;;8.73;;
32365;SDS011;18837;46.832;16.838;2023-06-22T10:52:46;10.70;;;9.13;;
32365;SDS011;18837;46.832;16.838;2023-06-22T10:55:11;9.93;;;9.03;;
32365;SDS011;18837;46.832;16.838;2023-06-22T10:57:37;9.60;;;8.67;;
32365;SDS011;18837;46.832;16.838;2023-06-22T11:00:07;9.67;;;8.73;;
32365;SDS011;18837;46.832;16.838;2023-06-22T11:02:49;11.10;;;8.93;;
32365;SDS011;18837;46.832;16.838;2023-06-22T11:05:16;9.30;;;8.40;;
32365;SDS011;18837;46.832;16.838;2023-06-22T11:07:50;9.23;;;8.33;;
32365;SDS011;18837;46.832;16.838;2023-06-22T11:10:15;9.43;;;8.50;;
32365;SDS011;18837;46.832;16.838;2023-06-22T11:12:41;9.80;;;8.80;;
32365;SDS011;18837;46.832;16.838;2023-06-22T11:15:08;9.03;;;8.13;;
32365;SDS011;18837;46.832;16.838;2023-06-22T11:17:34;10.07;;;8.30;;
32365;SDS011;18837;46.832;16.838;2023-06-22T11:20:00;9.43;;;8.50;;
32365;SDS011;18837;46.832;16.838;2023-06-22T11:22:33;10.40;;;8.67;;
32365;SDS011;18837;46.832;16.838;2023-06-22T11:25:00;10.07;;;9.10;;
32365;SDS011;18837;46.832;16.838;2023-06-22T11:27:26;9.27;;;8.37;;
32365;SDS011;18837;46.832;16.838;2023-06-22T11:29:51;9.00;;;8.20;;
32365;SDS011;18837;46.832;16.838;2023-06-22T11:32:18;8.47;;;7.77;;
32365;SDS011;18837;46.832;16.838;2023-06-22T11:34:44;8.93;;;8.03;;
32365;SDS011;18837;46.832;16.838;2023-06-22T11:37:11;8.87;;;7.97;;
32365;SDS011;18837;46.832;16.838;2023-06-22T11:39:49;9.47;;;8.60;;
32365;SDS011;18837;46.832;16.838;2023-06-22T11:42:18;9.73;;;8.73;;
32365;SDS011;18837;46.832;16.838;2023-06-22T11:44:43;9.57;;;8.67;;
32365;SDS011;18837;46.832;16.838;2023-06-22T11:47:11;8.83;;;8.13;;
32365;SDS011;18837;46.832;16.838;2023-06-22T11:49:37;9.63;;;8.73;;
32365;SDS011;18837;46.832;16.838;2023-06-22T11:52:03;9.47;;;8.67;;
32365;SDS011;18837;46.832;16.838;2023-06-22T11:54:29;9.73;;;8.90;;
32365;SDS011;18837;46.832;16.838;2023-06-22T11:57:00;9.30;;;8.40;;
32365;SDS011;18837;46.832;16.838;2023-06-22T11:59:25;10.17;;;9.03;;
32365;SDS011;18837;46.832;16.838;2023-06-22T12:01:51;9.37;;;8.57;;
32365;SDS011;18837;46.832;16.838;2023-06-22T12:04:17;10.63;;;9.23;;
32365;SDS011;18837;46.832;16.838;2023-06-22T12:06:43;10.03;;;9.07;;
32365;SDS011;18837;46.832;16.838;2023-06-22T12:09:09;9.03;;;8.17;;
32365;SDS011;18837;46.832;16.838;2023-06-22T12:17:38;9.53;;;8.73;;
32365;SDS011;18837;46.832;16.838;2023-06-22T12:20:04;9.17;;;8.40;;
32365;SDS011;18837;46.832;16.838;2023-06-22T12:22:34;9.47;;;7.90;;
32365;SDS011;18837;46.832;16.838;2023-06-22T12:25:00;10.00;;;9.00;;
32365;SDS011;18837;46.832;16.838;2023-06-22T12:27:26;9.53;;;8.73;;
32365;SDS011;18837;46.832;16.838;2023-06-22T12:30:08;9.93;;;9.03;;
32365;SDS011;18837;46.832;16.838;2023-06-22T12:32:34;9.63;;;8.73;;
32365;SDS011;18837;46.832;16.838;2023-06-22T12:35:00;9.67;;;8.77;;
32365;SDS011;18837;46.832;16.838;2023-06-22T12:37:25;9.80;;;8.80;;
32365;SDS011;18837;46.832;16.838;2023-06-22T12:39:51;10.60;;;9.60;;
32365;SDS011;18837;46.832;16.838;2023-06-22T12:42:18;9.83;;;8.83;;
32365;SDS011;18837;46.832;16.838;2023-06-22T12:44:44;9.97;;;8.97;;
32365;SDS011;18837;46.832;16.838;2023-06-22T12:47:25;9.40;;;8.53;;
32365;SDS011;18837;46.832;16.838;2023-06-22T12:49:55;10.33;;;9.13;;
32365;SDS011;18837;46.832;16.838;2023-06-22T12:52:21;9.70;;;8.70;;
32365;SDS011;18837;46.832;16.838;2023-06-22T12:54:47;10.03;;;9.10;;
32365;SDS011;18837;46.832;16.838;2023-06-22T12:57:13;9.27;;;8.47;;
32365;SDS011;18837;46.832;16.838;2023-06-22T12:59:39;9.50;;;8.63;;
32365;SDS011;18837;46.832;16.838;2023-06-22T13:02:05;9.77;;;8.77;;
32365;SDS011;18837;46.832;16.838;2023-06-22T13:04:40;9.93;;;8.97;;
32365;SDS011;18837;46.832;16.838;2023-06-22T13:07:06;9.87;;;9.07;;
32365;SDS011;18837;46.832;16.838;2023-06-22T13:09:32;9.00;;;8.20;;
32365;SDS011;18837;46.832;16.838;2023-06-22T13:12:00;10.53;;;9.53;;
32365;SDS011;18837;46.832;16.838;2023-06-22T13:14:25;10.00;;;8.97;;
32365;SDS011;18837;46.832;16.838;2023-06-22T13:16:52;10.40;;;9.50;;
32365;SDS011;18837;46.832;16.838;2023-06-22T13:19:18;9.97;;;9.07;;
32365;SDS011;18837;46.832;16.838;2023-06-22T13:21:50;10.10;;;9.27;;
32365;SDS011;18837;46.832;16.838;2023-06-22T13:24:17;10.23;;;9.10;;
32365;SDS011;18837;46.832;16.838;2023-06-22T13:26:43;9.93;;;9.10;;
32365;SDS011;18837;46.832;16.838;2023-06-22T13:29:09;10.10;;;9.10;;
32365;SDS011;18837;46.832;16.838;2023-06-22T13:31:35;10.27;;;9.27;;
32365;SDS011;18837;46.832;16.838;2023-06-22T13:34:02;10.17;;;9.13;;
32365;SDS011;18837;46.832;16.838;2023-06-22T13:36:27;9.07;;;8.27;;
32365;SDS011;18837;46.832;16.838;2023-06-22T13:38:55;9.70;;;8.87;;
32365;SDS011;18837;46.832;16.838;2023-06-22T13:41:22;10.13;;;9.30;;
32365;SDS011;18837;46.832;16.838;2023-06-22T13:43:51;10.10;;;9.10;;
32365;SDS011;18837;46.832;16.838;2023-06-22T13:46:17;9.60;;;8.80;;
32365;SDS011;18837;46.832;16.838;2023-06-22T13:48:43;10.47;;;9.47;;
32365;SDS011;18837;46.832;16.838;2023-06-22T13:51:10;10.37;;;9.47;;
32365;SDS011;18837;46.832;16.838;2023-06-22T13:53:37;10.57;;;9.57;;
32365;SDS011;18837;46.832;16.838;2023-06-22T13:56:18;10.17;;;9.17;;
32365;SDS011;18837;46.832;16.838;2023-06-22T13:58:56;9.93;;;9.03;;
32365;SDS011;18837;46.832;16.838;2023-06-22T14:01:22;9.60;;;8.80;;
32365;SDS011;18837;46.832;16.838;2023-06-22T14:03:47;10.60;;;9.73;;
32365;SDS011;18837;46.832;16.838;2023-06-22T14:06:13;9.97;;;9.17;;
32365;SDS011;18837;46.832;16.838;2023-06-22T14:08:39;11.07;;;10.17;;
32365;SDS011;18837;46.832;16.838;2023-06-22T14:11:05;10.27;;;9.03;;
32365;SDS011;18837;46.832;16.838;2023-06-22T14:13:46;10.20;;;9.30;;
32365;SDS011;18837;46.832;16.838;2023-06-22T14:16:12;10.33;;;9.33;;
32365;SDS011;18837;46.832;16.838;2023-06-22T14:18:38;10.37;;;9.47;;
32365;SDS011;18837;46.832;16.838;2023-06-22T14:21:04;10.83;;;9.77;;
32365;SDS011;18837;46.832;16.838;2023-06-22T14:23:29;10.87;;;9.80;;
32365;SDS011;18837;46.832;16.838;2023-06-22T14:25:55;10.83;;;9.80;;
32365;SDS011;18837;46.832;16.838;2023-06-22T14:28:21;11.40;;;10.30;;
32365;SDS011;18837;46.832;16.838;2023-06-22T14:33:51;10.53;;;9.53;;
32365;SDS011;18837;46.832;16.838;2023-06-22T14:36:17;10.93;;;9.33;;
32365;SDS011;18837;46.832;16.838;2023-06-22T14:38:43;10.83;;;9.27;;
32365;SDS011;18837;46.832;16.838;2023-06-22T14:41:09;10.00;;;9.10;;
32365;SDS011;18837;46.832;16.838;2023-06-22T14:43:35;9.90;;;8.97;;
32365;SDS011;18837;46.832;16.838;2023-06-22T14:46:01;9.80;;;8.90;;
32365;SDS011;18837;46.832;16.838;2023-06-22T14:48:32;10.70;;;9.77;;
32365;SDS011;18837;46.832;16.838;2023-06-22T14:50:58;9.47;;;8.43;;